Time;durP1;ratioP1;P1;durP2;ratioP2;P2;SDS_P1;SDS_P2;PMS_P1;PMS_P2;Temp;Humidity;BMP_temperature;BMP_pressure;BME280_temperature;BME280_humidity;BME280_pressure;Samples;Min_cycle;Max_cycle;Signal;HPM_P1;HPM_P2
2022/12/02 00:02:31;;;;;;;3.37;1.70;;;13.90;99.90;;;;;;5027916;28;20204;-76
2022/12/02 00:05:26;;;;;;;4.00;2.00;;;13.80;99.90;;;;;;5025916;28;20274;-76
2022/12/02 00:07:57;;;;;;;3.00;1.57;;;13.80;99.90;;;;;;5026155;28;20203;-75
2022/12/02 00:10:32;;;;;;;2.10;1.87;;;13.80;99.90;;;;;;5020825;28;20200;-76
2022/12/02 00:13:42;;;;;;;3.00;1.83;;;13.80;99.90;;;;;;5026834;28;20220;-75
2022/12/02 00:16:21;;;;;;;3.67;1.90;;;13.80;99.90;;;;;;5035406;28;20188;-76
2022/12/02 00:18:50;;;;;;;5.43;2.67;;;13.80;99.90;;;;;;5041983;28;20194;-76
2022/12/02 00:21:17;;;;;;;2.20;1.83;;;13.80;99.90;;;;;;5022493;28;20189;-76
2022/12/02 00:23:43;;;;;;;2.60;1.77;;;13.80;99.90;;;;;;5025473;28;20192;-76
2022/12/02 00:26:10;;;;;;;3.73;1.80;;;13.80;99.90;;;;;;5027361;28;20222;-76
2022/12/02 00:28:37;;;;;;;2.33;1.77;;;13.80;99.90;;;;;;5018290;28;20267;-76
2022/12/02 00:31:04;;;;;;;6.10;2.03;;;13.80;99.90;;;;;;5036229;28;20786;-76
2022/12/02 00:33:31;;;;;;;2.70;2.00;;;13.90;99.90;;;;;;5023777;28;20220;-76
2022/12/02 00:35:57;;;;;;;2.63;1.93;;;13.90;99.90;;;;;;5028714;28;20278;-76
2022/12/02 00:38:23;;;;;;;2.23;1.87;;;14.00;99.90;;;;;;5006197;28;20203;-76
2022/12/02 00:40:50;;;;;;;2.60;1.83;;;14.00;99.90;;;;;;5014987;28;20298;-76
2022/12/02 00:48:46;;;;;;;3.13;1.80;;;14.00;99.90;;;;;;5025159;28;20197;-76
2022/12/02 00:51:12;;;;;;;2.83;2.20;;;14.00;99.90;;;;;;5021020;28;20192;-76
2022/12/02 00:53:39;;;;;;;4.00;2.00;;;14.00;99.90;;;;;;5026161;28;20927;-76
2022/12/02 00:56:06;;;;;;;2.80;1.77;;;14.00;99.90;;;;;;5022781;28;20673;-76
2022/12/02 00:58:32;;;;;;;2.67;1.83;;;14.00;99.90;;;;;;5013870;28;20676;-76
2022/12/02 01:00:58;;;;;;;3.93;1.97;;;14.00;99.90;;;;;;5022161;28;20176;-76
2022/12/02 01:03:30;;;;;;;2.73;2.10;;;14.00;99.90;;;;;;5019031;28;20192;-76
2022/12/02 01:05:58;;;;;;;4.83;1.83;;;14.00;99.90;;;;;;5022226;28;20193;-75
2022/12/02 01:08:26;;;;;;;2.90;1.80;;;13.90;99.90;;;;;;5017589;28;20312;-75
2022/12/02 01:10:54;;;;;;;4.07;1.93;;;13.90;99.90;;;;;;5014792;28;20276;-76
2022/12/02 01:13:22;;;;;;;2.53;1.80;;;13.90;99.90;;;;;;5003925;28;20213;-76
2022/12/02 01:15:48;;;;;;;3.33;1.93;;;13.90;99.90;;;;;;5035493;28;20184;-76
2022/12/02 01:18:16;;;;;;;3.30;1.70;;;13.90;99.90;;;;;;4999967;28;20606;-76
2022/12/02 01:20:42;;;;;;;4.63;1.80;;;13.80;99.90;;;;;;5005556;28;20535;-75
2022/12/02 01:23:08;;;;;;;3.27;1.80;;;13.90;99.90;;;;;;5020779;28;20203;-76
2022/12/02 01:25:35;;;;;;;5.77;1.97;;;13.90;99.90;;;;;;5022170;28;20283;-75
2022/12/02 01:28:01;;;;;;;2.70;1.80;;;13.80;99.90;;;;;;5024105;28;20250;-76
2022/12/02 01:30:28;;;;;;;2.43;2.00;;;13.80;99.90;;;;;;5028988;28;20952;-76
2022/12/02 01:32:55;;;;;;;5.60;1.97;;;13.90;99.90;;;;;;5020831;28;20216;-76
2022/12/02 01:35:21;;;;;;;4.43;2.03;;;13.90;99.90;;;;;;5026819;28;20184;-76
2022/12/02 01:37:47;;;;;;;4.07;1.80;;;13.80;99.90;;;;;;5021251;28;20211;-76
2022/12/02 01:40:15;;;;;;;3.70;2.10;;;13.80;99.90;;;;;;5057288;28;20184;-76
2022/12/02 01:42:43;;;;;;;3.10;1.83;;;13.80;99.90;;;;;;5025692;28;20263;-76
2022/12/02 01:45:11;;;;;;;2.43;1.70;;;13.80;99.90;;;;;;5018308;28;20189;-76
2022/12/02 01:47:39;;;;;;;4.87;1.90;;;13.80;99.90;;;;;;5028123;28;20192;-76
2022/12/02 01:50:09;;;;;;;2.00;1.80;;;13.80;99.90;;;;;;5019963;28;20243;-76
2022/12/02 01:52:39;;;;;;;2.13;1.70;;;13.80;99.90;;;;;;5021160;28;20188;-76
2022/12/02 01:55:13;;;;;;;2.73;1.97;;;13.80;99.90;;;;;;5028967;28;20184;-76
2022/12/02 01:57:42;;;;;;;3.73;2.00;;;13.80;99.90;;;;;;5014065;28;20184;-76
2022/12/02 02:00:10;;;;;;;2.27;1.80;;;13.80;99.90;;;;;;5005757;28;20183;-76
2022/12/02 02:02:38;;;;;;;2.17;1.93;;;13.80;99.90;;;;;;5024737;28;20234;-76
2022/12/02 02:05:13;;;;;;;4.53;1.67;;;13.80;99.90;;;;;;5032761;28;20172;-76
2022/12/02 02:07:42;;;;;;;3.43;2.00;;;13.80;99.90;;;;;;5033417;28;20207;-76
2022/12/02 02:10:09;;;;;;;3.93;2.00;;;13.80;99.90;;;;;;5026603;28;20180;-76
2022/12/02 02:12:36;;;;;;;3.63;1.77;;;13.90;99.90;;;;;;5040811;28;20194;-76
2022/12/02 02:15:09;;;;;;;4.37;1.93;;;13.90;99.90;;;;;;5014068;28;20605;-76
2022/12/02 02:17:36;;;;;;;4.10;1.97;;;13.90;99.90;;;;;;5031479;28;20270;-76
2022/12/02 02:20:06;;;;;;;4.33;2.03;;;13.90;99.90;;;;;;5008972;28;20198;-76
2022/12/02 02:23:05;;;;;;;3.33;1.93;;;13.90;99.90;;;;;;5028120;28;20600;-76
2022/12/02 02:25:55;;;;;;;2.40;2.20;;;13.90;99.90;;;;;;5014562;28;20274;-76
2022/12/02 02:28:23;;;;;;;4.27;1.87;;;13.90;99.90;;;;;;5044662;28;20223;-76
2022/12/02 02:30:55;;;;;;;4.27;2.00;;;13.90;99.90;;;;;;5028171;28;20284;-76
2022/12/02 02:33:25;;;;;;;3.80;2.20;;;13.90;99.90;;;;;;5004116;28;21026;-76
2022/12/02 02:35:52;;;;;;;3.70;2.10;;;13.90;99.90;;;;;;5031150;28;20233;-76
2022/12/02 02:38:24;;;;;;;3.20;1.83;;;13.80;99.90;;;;;;5016262;28;20193;-76
2022/12/02 02:40:52;;;;;;;3.70;2.10;;;13.80;99.90;;;;;;5030770;28;20264;-76
2022/12/02 02:43:24;;;;;;;5.00;1.80;;;13.80;99.90;;;;;;5009734;28;20193;-75
2022/12/02 02:45:53;;;;;;;4.87;1.90;;;13.80;99.90;;;;;;5030658;28;20596;-76
2022/12/02 02:48:21;;;;;;;4.03;2.20;;;13.80;99.90;;;;;;5042708;28;20685;-76
2022/12/02 02:50:49;;;;;;;3.93;1.90;;;13.80;99.90;;;;;;5047009;28;20188;-76
2022/12/02 02:53:19;;;;;;;4.87;1.70;;;13.90;99.90;;;;;;5027820;28;20219;-76
2022/12/02 02:55:46;;;;;;;1.97;1.73;;;13.90;99.90;;;;;;5030406;28;20549;-76
2022/12/02 02:58:13;;;;;;;3.30;2.10;;;13.90;99.90;;;;;;5026716;28;20656;-75
2022/12/02 03:00:47;;;;;;;3.53;2.10;;;13.90;99.90;;;;;;5031941;28;20554;-75
2022/12/02 03:03:18;;;;;;;3.87;2.20;;;13.90;99.90;;;;;;5026087;28;20652;-75
2022/12/02 03:05:47;;;;;;;2.70;1.87;;;13.90;99.90;;;;;;5031412;28;20200;-75
2022/12/02 03:08:15;;;;;;;3.50;1.93;;;13.90;99.90;;;;;;5030011;28;20692;-75
2022/12/02 03:10:42;;;;;;;3.10;1.80;;;14.00;99.90;;;;;;5030160;28;20207;-75
2022/12/02 03:13:09;;;;;;;3.97;1.87;;;13.90;99.90;;;;;;5030648;28;20266;-75
2022/12/02 03:15:37;;;;;;;3.57;2.20;;;14.00;99.90;;;;;;5027665;28;20196;-75
2022/12/02 03:18:04;;;;;;;3.07;2.00;;;14.00;99.90;;;;;;5031127;28;20188;-75
2022/12/02 03:20:32;;;;;;;4.67;2.20;;;14.00;99.90;;;;;;5012300;28;20180;-75
2022/12/02 03:23:02;;;;;;;2.67;2.00;;;14.00;99.90;;;;;;5024696;28;20188;-74
2022/12/02 03:25:30;;;;;;;2.47;1.90;;;14.00;99.90;;;;;;5024552;28;20275;-75
2022/12/02 03:27:57;;;;;;;3.47;1.90;;;13.90;99.90;;;;;;5027370;28;20196;-75
2022/12/02 03:30:24;;;;;;;2.90;2.00;;;13.90;99.90;;;;;;5027204;28;20196;-75
2022/12/02 03:32:51;;;;;;;2.50;1.90;;;13.90;99.90;;;;;;5055374;28;20656;-75
2022/12/02 03:35:19;;;;;;;3.57;1.87;;;13.80;99.90;;;;;;5034106;28;20184;-75
2022/12/02 03:37:46;;;;;;;4.23;1.80;;;13.80;99.90;;;;;;5026898;28;20189;-75
2022/12/02 03:40:13;;;;;;;6.13;2.20;;;13.80;99.90;;;;;;5029402;28;20212;-75
2022/12/02 03:42:40;;;;;;;2.63;1.97;;;13.80;99.90;;;;;;5029074;28;20199;-75
2022/12/02 03:45:08;;;;;;;4.27;2.30;;;13.80;99.90;;;;;;5027431;28;20189;-75
2022/12/02 03:47:35;;;;;;;3.27;2.00;;;13.80;99.90;;;;;;5020836;28;20196;-75
2022/12/02 03:50:04;;;;;;;2.67;2.10;;;13.80;99.90;;;;;;5030384;28;20192;-75
2022/12/02 03:52:31;;;;;;;2.53;2.00;;;13.70;99.90;;;;;;5029045;28;20733;-75
2022/12/02 03:54:57;;;;;;;2.67;1.97;;;13.70;99.90;;;;;;5039641;28;20271;-75
2022/12/02 03:57:24;;;;;;;3.47;2.00;;;13.60;99.90;;;;;;5027370;28;20200;-75
2022/12/02 03:59:50;;;;;;;4.23;1.97;;;13.30;99.90;;;;;;5028210;28;20234;-75
2022/12/02 04:02:17;;;;;;;6.07;2.40;;;13.30;99.90;;;;;;5033569;28;20200;-75
2022/12/02 04:04:43;;;;;;;3.23;2.50;;;13.30;99.90;;;;;;5027968;28;20265;-75
2022/12/02 04:07:10;;;;;;;4.33;2.47;;;13.40;99.90;;;;;;5030321;28;20537;-75
2022/12/02 04:09:36;;;;;;;4.50;2.43;;;13.40;99.90;;;;;;5023930;28;20196;-75
2022/12/02 04:12:02;;;;;;;3.17;2.30;;;13.40;99.90;;;;;;5026150;28;20184;-74
2022/12/02 04:14:28;;;;;;;3.53;2.50;;;13.40;99.90;;;;;;5020158;28;20223;-74
2022/12/02 04:16:55;;;;;;;3.50;2.13;;;13.30;99.90;;;;;;5027546;28;20212;-75
2022/12/02 04:19:23;;;;;;;5.77;2.97;;;13.40;99.90;;;;;;5026763;28;20654;-74
2022/12/02 04:21:49;;;;;;;6.57;2.30;;;13.30;99.90;;;;;;5045311;28;20180;-74
2022/12/02 04:24:16;;;;;;;3.97;2.33;;;13.30;99.90;;;;;;5026542;28;20199;-75
2022/12/02 04:26:42;;;;;;;2.50;2.30;;;13.30;99.90;;;;;;5027228;28;20188;-75
2022/12/02 04:29:08;;;;;;;4.97;3.20;;;13.10;99.90;;;;;;5033822;28;20655;-75
2022/12/02 04:31:34;;;;;;;3.13;2.40;;;13.10;99.90;;;;;;5024976;28;20283;-75
2022/12/02 04:34:01;;;;;;;4.30;2.90;;;13.10;99.90;;;;;;5027632;28;20215;-75
2022/12/02 04:36:27;;;;;;;3.97;2.70;;;13.20;99.90;;;;;;5026982;28;20199;-75
2022/12/02 04:38:56;;;;;;;4.00;2.47;;;13.20;99.90;;;;;;5026101;28;20281;-75
2022/12/02 04:41:22;;;;;;;5.23;2.90;;;13.10;99.90;;;;;;5026504;28;20230;-75
2022/12/02 04:43:49;;;;;;;6.60;2.70;;;13.10;99.90;;;;;;5024954;28;20250;-75
2022/12/02 04:46:15;;;;;;;4.90;2.90;;;13.20;99.90;;;;;;5011762;28;20184;-75
2022/12/02 04:48:43;;;;;;;3.53;2.70;;;13.20;99.90;;;;;;5024779;28;20546;-74
2022/12/02 04:51:10;;;;;;;4.27;2.70;;;13.20;99.90;;;;;;5044382;28;20204;-74
2022/12/02 04:53:38;;;;;;;3.30;2.43;;;13.10;99.90;;;;;;5021360;28;20220;-75
2022/12/02 04:56:05;;;;;;;5.00;2.50;;;13.20;99.90;;;;;;5029661;28;20185;-75
2022/12/02 04:58:31;;;;;;;6.07;2.60;;;13.20;99.90;;;;;;5023510;28;20199;-75
2022/12/02 05:00:58;;;;;;;6.70;2.63;;;13.20;99.90;;;;;;5028415;28;20197;-75
2022/12/02 05:03:24;;;;;;;4.27;2.93;;;13.20;99.90;;;;;;5025470;28;20558;-75
2022/12/02 05:05:50;;;;;;;5.73;3.20;;;13.20;99.90;;;;;;5009649;28;20197;-75
2022/12/02 05:08:20;;;;;;;5.23;3.10;;;13.20;99.90;;;;;;5016681;28;20243;-75
2022/12/02 05:10:46;;;;;;;6.23;3.17;;;13.20;99.90;;;;;;5043260;28;20184;-75
2022/12/02 05:13:13;;;;;;;4.33;3.47;;;13.20;99.90;;;;;;5027282;28;20844;-75
2022/12/02 05:15:42;;;;;;;4.73;3.40;;;13.20;99.90;;;;;;5009476;28;20188;-75
2022/12/02 05:18:09;;;;;;;3.90;3.40;;;13.20;99.90;;;;;;5038412;28;20736;-75
2022/12/02 05:20:36;;;;;;;4.97;3.53;;;13.20;99.90;;;;;;5052546;28;20187;-75
2022/12/02 05:23:02;;;;;;;4.20;3.63;;;13.20;99.90;;;;;;5025468;28;20303;-75
2022/12/02 05:25:29;;;;;;;7.40;3.77;;;13.20;99.90;;;;;;5023541;28;20195;-75
2022/12/02 05:27:55;;;;;;;4.90;3.77;;;13.20;99.90;;;;;;5027183;28;20200;-74
2022/12/02 05:30:23;;;;;;;8.33;3.80;;;13.20;99.90;;;;;;5012151;28;20192;-75
2022/12/02 05:32:49;;;;;;;4.37;3.77;;;13.20;99.90;;;;;;5026756;28;20200;-75
2022/12/02 05:35:16;;;;;;;6.73;3.83;;;13.20;99.90;;;;;;5043963;28;20187;-75
2022/12/02 05:37:44;;;;;;;7.33;3.70;;;13.20;99.90;;;;;;5014242;28;20519;-75
2022/12/02 05:40:11;;;;;;;6.27;3.83;;;13.20;99.90;;;;;;5023418;28;20214;-75
2022/12/02 05:42:40;;;;;;;4.60;3.27;;;13.20;99.90;;;;;;5022264;28;20196;-75
2022/12/02 05:45:22;;;;;;;4.17;3.40;;;13.20;99.90;;;;;;5022739;28;20188;-75
2022/12/02 05:47:52;;;;;;;4.73;3.93;;;13.20;99.90;;;;;;5006685;28;20661;-75
2022/12/02 05:50:22;;;;;;;7.10;4.20;;;13.20;99.90;;;;;;5010413;28;20186;-75
2022/12/02 05:52:48;;;;;;;5.20;3.60;;;13.30;99.90;;;;;;5019830;28;20191;-75
2022/12/02 05:55:20;;;;;;;4.73;4.23;;;13.30;99.90;;;;;;5025230;28;20535;-75
2022/12/02 05:57:48;;;;;;;7.40;4.00;;;13.30;99.90;;;;;;5026291;28;20215;-75
2022/12/02 06:00:21;;;;;;;8.33;4.07;;;13.30;99.90;;;;;;5001436;28;20200;-75
2022/12/02 06:02:52;;;;;;;4.80;3.73;;;13.40;99.90;;;;;;5025563;28;20239;-74
2022/12/02 06:05:39;;;;;;;7.33;4.00;;;13.40;99.90;;;;;;5018327;28;20192;-75
2022/12/02 06:08:21;;;;;;;4.10;3.70;;;13.40;99.90;;;;;;5025659;28;20703;-75
2022/12/02 06:10:54;;;;;;;5.53;3.70;;;13.50;99.90;;;;;;5024075;28;20230;-75
2022/12/02 06:13:28;;;;;;;5.97;3.67;;;13.50;99.90;;;;;;5026123;28;20223;-75
2022/12/02 06:15:57;;;;;;;7.73;3.87;;;13.60;99.90;;;;;;5027350;28;20187;-75
2022/12/02 06:18:33;;;;;;;4.37;3.63;;;13.60;99.90;;;;;;5007270;28;20196;-75
2022/12/02 06:21:14;;;;;;;4.00;3.60;;;13.70;99.90;;;;;;5026649;28;20728;-75
2022/12/02 06:23:46;;;;;;;5.70;3.70;;;13.70;99.90;;;;;;5018546;28;20787;-75
2022/12/02 06:26:18;;;;;;;13.53;4.10;;;13.80;99.90;;;;;;5024890;28;20180;-75
2022/12/02 06:28:51;;;;;;;6.23;3.97;;;13.90;99.90;;;;;;5022491;28;20260;-74
2022/12/02 06:31:32;;;;;;;7.00;3.90;;;13.90;99.90;;;;;;5021948;28;20749;-74
2022/12/02 06:34:11;;;;;;;6.37;3.80;;;13.90;99.90;;;;;;5054622;28;20940;-75
2022/12/02 06:36:37;;;;;;;5.00;3.80;;;14.00;99.90;;;;;;5034792;28;20279;-75
2022/12/02 06:39:25;;;;;;;4.53;3.90;;;14.00;99.90;;;;;;5021865;28;20234;-75
2022/12/02 06:41:53;;;;;;;4.93;4.03;;;14.00;99.90;;;;;;5018784;28;20222;-75
2022/12/02 06:48:04;;;;;;;6.50;4.67;;;14.00;99.90;;;;;;5013721;28;20826;-75
2022/12/02 06:50:50;;;;;;;7.27;4.57;;;14.10;99.90;;;;;;4931064;29;20671;-75
2022/12/02 06:53:38;;;;;;;6.90;4.63;;;14.10;99.90;;;;;;5023406;28;20709;-75
2022/12/02 06:56:20;;;;;;;6.03;4.47;;;14.20;99.90;;;;;;5022103;28;20718;-75
2022/12/02 06:59:05;;;;;;;7.70;4.40;;;14.20;99.90;;;;;;5020475;28;20195;-75
2022/12/02 07:01:44;;;;;;;8.40;4.13;;;14.20;99.90;;;;;;5016005;28;20188;-75
2022/12/02 07:04:37;;;;;;;4.70;3.90;;;14.20;99.90;;;;;;5033547;28;20198;-75
2022/12/02 07:07:20;;;;;;;8.17;4.20;;;14.30;99.90;;;;;;5058133;28;20189;-75
2022/12/02 07:09:54;;;;;;;8.03;4.17;;;14.30;99.90;;;;;;5024580;28;20283;-75
2022/12/02 07:12:38;;;;;;;5.73;3.67;;;14.30;99.90;;;;;;5024309;28;20180;-75
2022/12/02 07:15:25;;;;;;;7.70;3.80;;;14.30;99.90;;;;;;5029206;28;20314;-75
2022/12/02 07:17:53;;;;;;;5.87;3.77;;;14.40;99.90;;;;;;5041139;28;20577;-75
2022/12/02 07:20:33;;;;;;;8.87;3.67;;;14.40;99.90;;;;;;5024331;28;20191;-74
2022/12/02 07:23:17;;;;;;;7.53;3.47;;;14.40;99.90;;;;;;5024049;28;20191;-74
2022/12/02 07:25:59;;;;;;;6.50;3.80;;;14.50;99.90;;;;;;5028577;28;20683;-74
2022/12/02 07:28:44;;;;;;;7.20;3.70;;;14.80;99.90;;;;;;5045564;28;20188;-74
2022/12/02 07:31:25;;;;;;;8.60;4.00;;;14.80;99.90;;;;;;5041017;28;20195;-75
2022/12/02 07:33:53;;;;;;;7.03;3.90;;;14.80;99.90;;;;;;5019786;28;20228;-75
2022/12/02 07:36:21;;;;;;;8.27;3.60;;;14.70;99.90;;;;;;5013078;28;20893;-75
2022/12/02 07:38:47;;;;;;;6.93;3.13;;;14.70;99.90;;;;;;5030254;28;20199;-75
2022/12/02 07:41:14;;;;;;;8.70;3.70;;;14.70;99.90;;;;;;5028611;28;20195;-75
2022/12/02 07:43:40;;;;;;;5.70;2.83;;;14.70;99.90;;;;;;5022901;28;20192;-75
2022/12/02 07:46:07;;;;;;;4.77;3.03;;;14.70;99.90;;;;;;5023034;28;20883;-75
2022/12/02 07:48:33;;;;;;;9.60;3.10;;;14.70;99.90;;;;;;5023872;28;20279;-75
2022/12/02 07:51:00;;;;;;;9.53;3.30;;;14.70;99.90;;;;;;5024952;28;20204;-75
2022/12/02 07:53:30;;;;;;;8.73;3.30;;;14.70;99.90;;;;;;5013318;28;20615;-75
2022/12/02 07:55:57;;;;;;;7.30;3.20;;;14.80;99.90;;;;;;5018110;28;20657;-75
2022/12/02 07:58:24;;;;;;;6.20;3.03;;;14.90;99.90;;;;;;5025529;28;20644;-75
2022/12/02 08:00:51;;;;;;;8.17;3.20;;;14.90;99.90;;;;;;5026660;28;20180;-75
2022/12/02 08:03:17;;;;;;;7.07;2.90;;;15.00;99.90;;;;;;5025080;28;20204;-74
2022/12/02 08:05:44;;;;;;;8.40;2.90;;;15.10;99.90;;;;;;5032476;28;20192;-75
2022/12/02 08:08:11;;;;;;;8.87;3.30;;;15.10;99.90;;;;;;5025371;28;20273;-75
2022/12/02 08:10:37;;;;;;;8.03;3.43;;;15.20;99.90;;;;;;5031652;28;20195;-75
2022/12/02 08:13:04;;;;;;;11.03;3.70;;;15.20;99.90;;;;;;5020569;28;20262;-75
2022/12/02 08:15:30;;;;;;;9.47;3.53;;;15.20;99.90;;;;;;5027590;28;20818;-75
2022/12/02 08:17:57;;;;;;;9.83;3.07;;;15.30;99.90;;;;;;5022815;28;20188;-75
2022/12/02 08:20:24;;;;;;;5.30;3.13;;;15.30;99.90;;;;;;5007816;28;20220;-75
2022/12/02 08:22:51;;;;;;;8.50;3.90;;;15.30;99.90;;;;;;5008188;28;20185;-75
2022/12/02 08:25:17;;;;;;;5.40;3.33;;;15.40;99.90;;;;;;5027921;28;20184;-75
2022/12/02 08:27:44;;;;;;;6.50;2.73;;;15.50;99.90;;;;;;5020727;28;20807;-75
2022/12/02 08:30:14;;;;;;;5.53;2.80;;;15.50;99.90;;;;;;5034551;28;20585;-75
2022/12/02 08:32:40;;;;;;;6.27;2.43;;;15.50;99.90;;;;;;5025374;28;20689;-75
2022/12/02 08:35:07;;;;;;;5.33;2.50;;;15.60;99.90;;;;;;5025996;28;20235;-75
2022/12/02 08:37:33;;;;;;;8.70;4.03;;;15.60;99.90;;;;;;5019695;28;20271;-75
2022/12/02 08:40:00;;;;;;;13.27;3.40;;;15.70;99.90;;;;;;5026895;28;20192;-75
2022/12/02 08:42:26;;;;;;;5.77;2.70;;;15.70;99.90;;;;;;5022155;28;20215;-75
2022/12/02 08:44:52;;;;;;;4.80;2.77;;;15.70;99.90;;;;;;5028218;28;20196;-75
2022/12/02 08:47:19;;;;;;;6.60;2.60;;;15.70;99.90;;;;;;5012067;28;20200;-75
2022/12/02 08:49:45;;;;;;;6.77;3.63;;;15.80;99.90;;;;;;5026066;28;20188;-75
2022/12/02 08:52:11;;;;;;;5.17;2.80;;;15.70;99.90;;;;;;5024025;28;20273;-75
2022/12/02 08:54:42;;;;;;;4.07;2.30;;;15.80;99.90;;;;;;5026924;28;20239;-75
2022/12/02 08:57:09;;;;;;;6.40;2.60;;;15.80;99.90;;;;;;5056900;28;20199;-75
2022/12/02 08:59:35;;;;;;;8.40;2.70;;;15.80;99.90;;;;;;5017980;28;20203;-75
2022/12/02 09:02:04;;;;;;;4.87;2.63;;;15.90;99.90;;;;;;5007759;28;20192;-75
2022/12/02 09:04:31;;;;;;;9.10;2.70;;;15.90;99.90;;;;;;5031795;28;20643;-75
2022/12/02 09:06:57;;;;;;;9.33;2.80;;;15.90;99.90;;;;;;5017475;28;20561;-75
2022/12/02 09:09:24;;;;;;;7.77;2.93;;;16.00;99.90;;;;;;5037251;28;20244;-75
2022/12/02 09:11:50;;;;;;;5.67;2.10;;;16.10;99.90;;;;;;5025061;28;20504;-75
2022/12/02 09:14:16;;;;;;;6.70;2.60;;;16.10;99.90;;;;;;5021636;28;20213;-75
2022/12/02 09:16:43;;;;;;;8.20;2.53;;;16.10;99.90;;;;;;5007854;28;20600;-75
2022/12/02 09:19:11;;;;;;;8.37;3.17;;;16.10;99.90;;;;;;5019923;28;20196;-75
2022/12/02 09:21:37;;;;;;;4.70;2.50;;;16.20;99.90;;;;;;5010944;28;20195;-75
2022/12/02 09:24:04;;;;;;;6.73;3.23;;;16.20;99.90;;;;;;5029296;28;20196;-75
2022/12/02 09:26:33;;;;;;;10.87;3.30;;;16.20;99.90;;;;;;5028585;28;20200;-75
2022/12/02 09:29:01;;;;;;;6.60;3.13;;;16.20;99.90;;;;;;5042487;28;20677;-75
2022/12/02 09:31:28;;;;;;;6.73;2.33;;;16.20;99.90;;;;;;5023971;28;20219;-75
2022/12/02 09:33:54;;;;;;;7.00;3.00;;;16.30;99.90;;;;;;5032325;28;20239;-75
2022/12/02 09:36:20;;;;;;;10.60;3.30;;;16.30;99.90;;;;;;5023598;28;20189;-75
2022/12/02 09:38:46;;;;;;;5.23;2.80;;;16.40;99.90;;;;;;5017238;28;20640;-75
2022/12/02 09:41:13;;;;;;;6.50;2.63;;;16.40;99.90;;;;;;5022057;28;20219;-75
2022/12/02 09:43:41;;;;;;;5.10;2.67;;;16.40;99.90;;;;;;5025460;28;20195;-75
2022/12/02 09:46:08;;;;;;;7.90;3.00;;;16.40;99.90;;;;;;5028236;28;20929;-75
2022/12/02 09:48:36;;;;;;;7.00;2.53;;;16.50;99.90;;;;;;5013715;28;20257;-75
2022/12/02 09:51:04;;;;;;;5.67;2.67;;;16.50;99.90;;;;;;5026730;28;20195;-75
2022/12/02 09:53:40;;;;;;;6.43;2.50;;;16.60;99.90;;;;;;5006332;28;20626;-75
2022/12/02 09:56:16;;;;;;;9.53;2.90;;;16.60;99.90;;;;;;5010021;28;20715;-75
2022/12/02 09:58:44;;;;;;;6.27;2.60;;;16.60;99.90;;;;;;5008364;28;20185;-75
2022/12/02 10:01:13;;;;;;;7.17;3.03;;;16.60;99.90;;;;;;5035111;28;20184;-75
2022/12/02 10:03:40;;;;;;;8.37;3.13;;;16.70;99.90;;;;;;5008878;28;20310;-75
2022/12/02 10:06:23;;;;;;;8.23;2.80;;;16.70;99.90;;;;;;5026242;28;20204;-75
2022/12/02 10:08:53;;;;;;;9.40;2.50;;;16.80;99.90;;;;;;5022765;28;20239;-75
2022/12/02 10:11:33;;;;;;;6.20;2.30;;;16.80;99.90;;;;;;5044907;28;20801;-75
2022/12/02 10:14:02;;;;;;;6.40;2.00;;;16.90;99.90;;;;;;5059145;28;20212;-75
2022/12/02 10:16:29;;;;;;;5.60;2.63;;;16.90;99.90;;;;;;5009323;28;20274;-75
2022/12/02 10:19:04;;;;;;;5.23;2.90;;;17.00;99.90;;;;;;5020629;28;20264;-75
2022/12/02 10:21:31;;;;;;;5.33;2.40;;;17.00;99.90;;;;;;5023708;28;20215;-75
2022/12/02 10:24:07;;;;;;;6.63;2.20;;;17.00;99.90;;;;;;5026255;28;20200;-75
2022/12/02 10:26:50;;;;;;;7.20;3.03;;;17.00;99.90;;;;;;5013214;28;20290;-75
2022/12/02 10:29:29;;;;;;;6.50;2.30;;;17.10;99.90;;;;;;5024090;28;20568;-75
2022/12/02 10:32:01;;;;;;;6.63;2.20;;;17.10;99.90;;;;;;5025695;28;22038;-75
2022/12/02 10:34:32;;;;;;;5.53;2.67;;;17.20;99.90;;;;;;5030308;28;20220;-75
2022/12/02 10:37:24;;;;;;;4.77;1.93;;;17.30;99.90;;;;;;5020554;28;20185;-75
2022/12/02 10:40:20;;;;;;;8.47;2.70;;;17.40;99.90;;;;;;5027404;28;20608;-75
2022/12/02 10:43:05;;;;;;;3.20;1.73;;;17.50;99.90;;;;;;5015609;28;20196;-75
2022/12/02 10:45:31;;;;;;;4.70;1.70;;;17.60;99.90;;;;;;5015980;28;20196;-75
2022/12/02 10:48:15;;;;;;;3.83;1.77;;;17.60;99.90;;;;;;5012751;28;20188;-75
2022/12/02 10:50:43;;;;;;;4.40;1.77;;;17.60;99.90;;;;;;5027662;28;20259;-75
2022/12/02 10:53:17;;;;;;;4.57;2.00;;;17.70;99.90;;;;;;5041056;28;20938;-75
2022/12/02 10:55:47;;;;;;;5.40;1.70;;;17.80;99.90;;;;;;5025122;28;20750;-75
2022/12/02 10:58:29;;;;;;;4.93;1.70;;;18.00;99.90;;;;;;5022672;28;20672;-76
2022/12/02 11:00:58;;;;;;;3.57;1.50;;;18.00;99.90;;;;;;5016962;28;20294;-75
2022/12/02 11:03:25;;;;;;;5.93;1.50;;;18.00;99.90;;;;;;5024026;28;20611;-75
2022/12/02 11:28:53;;;;;;;2.40;1.70;;;18.10;99.90;;;;;;5010086;28;20593;-76
2022/12/02 11:31:25;;;;;;;3.60;1.57;;;18.10;99.90;;;;;;5025505;28;20216;-75
2022/12/02 11:33:53;;;;;;;8.63;2.00;;;18.10;99.90;;;;;;5028664;28;20711;-76
2022/12/02 11:36:23;;;;;;;3.90;1.77;;;18.20;99.90;;;;;;5030342;28;20948;-76
2022/12/02 11:39:07;;;;;;;3.43;1.70;;;18.20;99.90;;;;;;5025879;28;20184;-75
2022/12/02 11:41:59;;;;;;;4.03;1.77;;;18.20;99.90;;;;;;5028564;28;20192;-76
2022/12/02 11:44:29;;;;;;;6.67;2.43;;;18.30;99.90;;;;;;4987379;28;20258;-76
2022/12/02 11:47:02;;;;;;;5.80;1.70;;;18.30;99.90;;;;;;5018141;28;20558;-76
2022/12/02 11:49:35;;;;;;;4.97;2.30;;;18.40;99.90;;;;;;5015164;28;20188;-76
2022/12/02 11:52:08;;;;;;;4.07;1.83;;;18.30;99.90;;;;;;5024170;28;20184;-75
2022/12/02 11:54:43;;;;;;;4.70;1.90;;;18.20;99.90;;;;;;5003599;28;20200;-75
2022/12/02 11:57:39;;;;;;;8.63;2.10;;;18.20;99.90;;;;;;5028692;28;20183;-76
2022/12/02 12:00:27;;;;;;;3.03;1.67;;;18.10;99.90;;;;;;5014812;28;20216;-75
2022/12/02 12:03:15;;;;;;;4.73;2.30;;;18.10;99.90;;;;;;5016472;28;20185;-75
2022/12/02 12:06:11;;;;;;;6.13;1.70;;;18.10;99.90;;;;;;5043019;28;20196;-75
2022/12/02 12:08:43;;;;;;;5.17;1.63;;;18.20;99.90;;;;;;5020249;28;20866;-76
2022/12/02 12:11:28;;;;;;;9.10;1.80;;;18.20;99.90;;;;;;5024214;28;20191;-76
2022/12/02 12:14:10;;;;;;;3.43;1.60;;;18.30;99.90;;;;;;5046444;28;20207;-75
2022/12/02 12:16:45;;;;;;;3.67;1.70;;;18.20;99.90;;;;;;5015495;28;20254;-75
2022/12/02 12:19:11;;;;;;;3.33;1.63;;;18.00;99.90;;;;;;5023793;28;20203;-75
2022/12/02 12:21:44;;;;;;;4.50;1.77;;;17.90;99.90;;;;;;5026267;28;20199;-75
2022/12/02 12:24:23;;;;;;;2.30;1.50;;;17.90;99.90;;;;;;5019659;28;20185;-75
2022/12/02 12:27:08;;;;;;;2.93;1.57;;;17.80;99.90;;;;;;5023091;28;20659;-76
2022/12/02 12:29:40;;;;;;;4.33;1.60;;;17.90;99.90;;;;;;5010483;28;20541;-75
2022/12/02 12:32:11;;;;;;;3.03;1.53;;;17.80;99.90;;;;;;5007546;28;20638;-75
2022/12/02 12:34:37;;;;;;;4.93;1.93;;;17.90;99.90;;;;;;5023365;28;20509;-76
2022/12/02 12:37:04;;;;;;;4.13;1.83;;;17.90;99.90;;;;;;5048090;28;20724;-75
2022/12/02 12:39:30;;;;;;;5.83;1.93;;;18.00;99.90;;;;;;5024314;28;20241;-76
2022/12/02 12:41:59;;;;;;;8.50;2.00;;;18.00;99.90;;;;;;5026214;28;20180;-76
2022/12/02 12:44:25;;;;;;;3.80;1.80;;;18.00;99.90;;;;;;5021905;28;20220;-76
2022/12/02 12:46:51;;;;;;;5.83;2.00;;;18.00;99.90;;;;;;5023931;28;20215;-75
2022/12/02 12:49:18;;;;;;;5.07;1.77;;;17.80;99.90;;;;;;5026446;28;20211;-76
2022/12/02 12:51:44;;;;;;;4.37;1.70;;;17.70;99.90;;;;;;5014090;28;20196;-76
2022/12/02 12:54:11;;;;;;;5.67;1.73;;;17.60;99.90;;;;;;5022911;28;20215;-75
2022/12/02 12:56:37;;;;;;;2.63;1.77;;;17.60;99.90;;;;;;5027040;28;20212;-76
2022/12/02 12:59:03;;;;;;;5.23;1.60;;;17.60;99.90;;;;;;5020250;28;20192;-75
2022/12/02 13:01:29;;;;;;;3.67;1.77;;;17.60;99.90;;;;;;5023821;28;20665;-75
2022/12/02 13:03:56;;;;;;;4.33;1.70;;;17.50;99.90;;;;;;5028117;28;20200;-76
2022/12/02 13:06:22;;;;;;;3.63;1.60;;;17.50;99.90;;;;;;5028108;28;20207;-76
2022/12/02 13:08:48;;;;;;;3.27;1.57;;;17.50;99.90;;;;;;5026142;28;20569;-76
2022/12/02 13:11:16;;;;;;;4.80;1.77;;;17.40;99.90;;;;;;5020680;28;20572;-76
2022/12/02 13:13:43;;;;;;;4.17;1.70;;;17.40;99.90;;;;;;5025418;28;20219;-76
2022/12/02 13:16:10;;;;;;;4.03;1.80;;;17.30;99.90;;;;;;5047661;28;20204;-76
2022/12/02 13:18:38;;;;;;;3.03;1.70;;;17.30;99.90;;;;;;5024261;28;20184;-76
2022/12/02 13:21:05;;;;;;;6.80;1.77;;;17.30;99.90;;;;;;5021878;28;20676;-76
2022/12/02 13:23:31;;;;;;;4.87;2.00;;;17.20;99.90;;;;;;5013492;28;20192;-76
2022/12/02 13:26:00;;;;;;;6.20;1.63;;;17.20;99.90;;;;;;5027448;28;20259;-75
2022/12/02 13:28:26;;;;;;;3.97;1.77;;;17.10;99.90;;;;;;5027352;28;20199;-75
2022/12/02 13:30:54;;;;;;;4.47;1.50;;;17.10;99.90;;;;;;5025661;28;20282;-75
2022/12/02 13:33:22;;;;;;;4.87;1.87;;;17.00;99.90;;;;;;5053411;28;20219;-75
2022/12/02 13:35:49;;;;;;;2.87;1.53;;;17.00;99.90;;;;;;5033898;28;20176;-75